sensor_id;sensor_type;location;lat;lon;timestamp;P1;durP1;ratioP1;P2;durP2;ratioP2
31770;SDS011;18343;50.152;8.182;2024-02-23T00:02:10;4.28;;;0.90;;
31770;SDS011;18343;50.152;8.182;2024-02-23T00:04:55;0.60;;;0.57;;
31770;SDS011;18343;50.152;8.182;2024-02-23T00:07:39;1.67;;;0.50;;
31770;SDS011;18343;50.152;8.182;2024-02-23T00:10:24;2.45;;;0.70;;
31770;SDS011;18343;50.152;8.182;2024-02-23T00:13:08;1.38;;;0.60;;
31770;SDS011;18343;50.152;8.182;2024-02-23T00:15:53;4.10;;;0.90;;
31770;SDS011;18343;50.152;8.182;2024-02-23T00:18:39;1.35;;;0.60;;
31770;SDS011;18343;50.152;8.182;2024-02-23T00:21:24;3.45;;;0.90;;
31770;SDS011;18343;50.152;8.182;2024-02-23T00:24:08;6.72;;;1.10;;
31770;SDS011;18343;50.152;8.182;2024-02-23T00:26:53;2.90;;;1.08;;
31770;SDS011;18343;50.152;8.182;2024-02-23T00:29:38;2.53;;;0.65;;
31770;SDS011;18343;50.152;8.182;2024-02-23T00:32:22;2.13;;;0.60;;
31770;SDS011;18343;50.152;8.182;2024-02-23T00:35:08;1.35;;;0.45;;
31770;SDS011;18343;50.152;8.182;2024-02-23T00:37:53;0.47;;;0.43;;
31770;SDS011;18343;50.152;8.182;2024-02-23T00:40:38;4.38;;;0.60;;
31770;SDS011;18343;50.152;8.182;2024-02-23T00:43:23;0.93;;;0.43;;
31770;SDS011;18343;50.152;8.182;2024-02-23T00:46:08;0.47;;;0.30;;
31770;SDS011;18343;50.152;8.182;2024-02-23T00:48:53;1.10;;;0.30;;
31770;SDS011;18343;50.152;8.182;2024-02-23T00:51:39;2.75;;;0.20;;
31770;SDS011;18343;50.152;8.182;2024-02-23T00:54:24;0.55;;;0.28;;
31770;SDS011;18343;50.152;8.182;2024-02-23T00:57:08;1.90;;;0.40;;
31770;SDS011;18343;50.152;8.182;2024-02-23T00:59:53;1.50;;;0.38;;
31770;SDS011;18343;50.152;8.182;2024-02-23T01:02:38;0.30;;;0.30;;
31770;SDS011;18343;50.152;8.182;2024-02-23T01:05:22;4.35;;;0.55;;
31770;SDS011;18343;50.152;8.182;2024-02-23T01:08:08;2.60;;;0.45;;
31770;SDS011;18343;50.152;8.182;2024-02-23T01:10:53;2.50;;;0.40;;
31770;SDS011;18343;50.152;8.182;2024-02-23T01:13:37;3.00;;;0.63;;
31770;SDS011;18343;50.152;8.182;2024-02-23T01:16:22;0.55;;;0.30;;
31770;SDS011;18343;50.152;8.182;2024-02-23T01:19:07;4.57;;;0.73;;
31770;SDS011;18343;50.152;8.182;2024-02-23T01:21:51;0.88;;;0.30;;
31770;SDS011;18343;50.152;8.182;2024-02-23T01:24:37;0.85;;;0.47;;
31770;SDS011;18343;50.152;8.182;2024-02-23T01:27:22;1.45;;;0.73;;
31770;SDS011;18343;50.152;8.182;2024-02-23T01:30:07;0.82;;;0.30;;
31770;SDS011;18343;50.152;8.182;2024-02-23T01:32:53;1.48;;;0.32;;
31770;SDS011;18343;50.152;8.182;2024-02-23T01:35:37;3.35;;;0.65;;
31770;SDS011;18343;50.152;8.182;2024-02-23T01:38:22;4.22;;;0.65;;
31770;SDS011;18343;50.152;8.182;2024-02-23T01:41:08;0.85;;;0.50;;
31770;SDS011;18343;50.152;8.182;2024-02-23T01:43:53;0.85;;;0.40;;
31770;SDS011;18343;50.152;8.182;2024-02-23T01:46:37;5.07;;;0.90;;
31770;SDS011;18343;50.152;8.182;2024-02-23T01:49:22;1.50;;;0.50;;
31770;SDS011;18343;50.152;8.182;2024-02-23T01:52:07;1.88;;;0.50;;
31770;SDS011;18343;50.152;8.182;2024-02-23T01:54:54;0.88;;;0.47;;
31770;SDS011;18343;50.152;8.182;2024-02-23T01:57:42;4.53;;;0.75;;
31770;SDS011;18343;50.152;8.182;2024-02-23T02:00:28;3.80;;;1.20;;
31770;SDS011;18343;50.152;8.182;2024-02-23T02:03:13;2.08;;;0.70;;
31770;SDS011;18343;50.152;8.182;2024-02-23T02:06:01;1.95;;;0.60;;
31770;SDS011;18343;50.152;8.182;2024-02-23T02:08:46;4.07;;;0.85;;
31770;SDS011;18343;50.152;8.182;2024-02-23T02:11:31;4.15;;;0.50;;
31770;SDS011;18343;50.152;8.182;2024-02-23T02:14:17;2.20;;;0.50;;
31770;SDS011;18343;50.152;8.182;2024-02-23T02:17:02;6.00;;;0.88;;
31770;SDS011;18343;50.152;8.182;2024-02-23T02:19:47;1.70;;;0.57;;
31770;SDS011;18343;50.152;8.182;2024-02-23T02:22:32;2.13;;;0.63;;
31770;SDS011;18343;50.152;8.182;2024-02-23T02:25:17;3.80;;;0.70;;
31770;SDS011;18343;50.152;8.182;2024-02-23T02:28:04;4.78;;;0.80;;
31770;SDS011;18343;50.152;8.182;2024-02-23T02:30:52;2.05;;;0.60;;
31770;SDS011;18343;50.152;8.182;2024-02-23T02:33:36;2.75;;;0.90;;
31770;SDS011;18343;50.152;8.182;2024-02-23T02:36:21;4.10;;;0.73;;
31770;SDS011;18343;50.152;8.182;2024-02-23T02:39:05;0.82;;;0.60;;
31770;SDS011;18343;50.152;8.182;2024-02-23T02:41:50;4.00;;;0.60;;
31770;SDS011;18343;50.152;8.182;2024-02-23T02:44:35;6.53;;;0.85;;
31770;SDS011;18343;50.152;8.182;2024-02-23T02:47:20;3.42;;;0.80;;
31770;SDS011;18343;50.152;8.182;2024-02-23T02:50:05;3.03;;;0.60;;
31770;SDS011;18343;50.152;8.182;2024-02-23T02:52:50;4.93;;;0.80;;
31770;SDS011;18343;50.152;8.182;2024-02-23T02:55:35;12.65;;;0.90;;
31770;SDS011;18343;50.152;8.182;2024-02-23T02:58:19;1.63;;;0.70;;
31770;SDS011;18343;50.152;8.182;2024-02-23T03:01:03;5.20;;;0.98;;
31770;SDS011;18343;50.152;8.182;2024-02-23T03:03:51;4.82;;;1.00;;
31770;SDS011;18343;50.152;8.182;2024-02-23T03:06:35;11.07;;;0.95;;
31770;SDS011;18343;50.152;8.182;2024-02-23T03:09:20;1.75;;;0.60;;
31770;SDS011;18343;50.152;8.182;2024-02-23T03:12:05;5.78;;;1.02;;
31770;SDS011;18343;50.152;8.182;2024-02-23T03:14:50;4.05;;;1.15;;
31770;SDS011;18343;50.152;8.182;2024-02-23T03:17:37;4.53;;;0.70;;
31770;SDS011;18343;50.152;8.182;2024-02-23T03:20:23;2.88;;;0.75;;
31770;SDS011;18343;50.152;8.182;2024-02-23T03:23:07;2.42;;;0.95;;
31770;SDS011;18343;50.152;8.182;2024-02-23T03:25:52;6.40;;;0.60;;
31770;SDS011;18343;50.152;8.182;2024-02-23T03:28:37;2.08;;;0.95;;
31770;SDS011;18343;50.152;8.182;2024-02-23T03:31:21;5.75;;;1.15;;
31770;SDS011;18343;50.152;8.182;2024-02-23T03:34:06;4.97;;;0.80;;
31770;SDS011;18343;50.152;8.182;2024-02-23T03:36:54;5.88;;;1.00;;
31770;SDS011;18343;50.152;8.182;2024-02-23T03:39:39;5.97;;;1.02;;
31770;SDS011;18343;50.152;8.182;2024-02-23T03:42:23;2.95;;;0.77;;
31770;SDS011;18343;50.152;8.182;2024-02-23T03:45:08;2.35;;;0.80;;
31770;SDS011;18343;50.152;8.182;2024-02-23T03:47:57;5.53;;;0.85;;
31770;SDS011;18343;50.152;8.182;2024-02-23T03:50:43;5.43;;;1.15;;
31770;SDS011;18343;50.152;8.182;2024-02-23T03:53:28;2.58;;;0.73;;
31770;SDS011;18343;50.152;8.182;2024-02-23T03:56:13;1.75;;;0.65;;
31770;SDS011;18343;50.152;8.182;2024-02-23T03:58:58;1.52;;;0.70;;
31770;SDS011;18343;50.152;8.182;2024-02-23T04:01:42;2.97;;;1.00;;
31770;SDS011;18343;50.152;8.182;2024-02-23T04:04:27;4.53;;;1.00;;
31770;SDS011;18343;50.152;8.182;2024-02-23T04:07:12;4.28;;;0.93;;
31770;SDS011;18343;50.152;8.182;2024-02-23T04:09:58;7.28;;;0.73;;
31770;SDS011;18343;50.152;8.182;2024-02-23T04:12:43;2.72;;;0.70;;
31770;SDS011;18343;50.152;8.182;2024-02-23T04:15:27;2.45;;;0.88;;
31770;SDS011;18343;50.152;8.182;2024-02-23T04:18:12;5.75;;;1.08;;
31770;SDS011;18343;50.152;8.182;2024-02-23T04:21:02;2.50;;;0.90;;
31770;SDS011;18343;50.152;8.182;2024-02-23T04:23:47;3.72;;;0.90;;
31770;SDS011;18343;50.152;8.182;2024-02-23T04:26:33;4.68;;;0.88;;
31770;SDS011;18343;50.152;8.182;2024-02-23T04:29:18;3.42;;;0.90;;
31770;SDS011;18343;50.152;8.182;2024-02-23T04:32:03;4.55;;;1.05;;
31770;SDS011;18343;50.152;8.182;2024-02-23T04:34:48;6.15;;;1.00;;
31770;SDS011;18343;50.152;8.182;2024-02-23T04:37:33;4.63;;;0.98;;
31770;SDS011;18343;50.152;8.182;2024-02-23T04:40:18;7.93;;;0.93;;
31770;SDS011;18343;50.152;8.182;2024-02-23T04:43:04;4.53;;;1.10;;
31770;SDS011;18343;50.152;8.182;2024-02-23T04:45:49;4.40;;;0.88;;
31770;SDS011;18343;50.152;8.182;2024-02-23T04:48:34;5.47;;;0.90;;
31770;SDS011;18343;50.152;8.182;2024-02-23T04:51:27;8.07;;;1.27;;
31770;SDS011;18343;50.152;8.182;2024-02-23T04:54:11;4.07;;;1.05;;
31770;SDS011;18343;50.152;8.182;2024-02-23T04:56:56;5.80;;;1.25;;
31770;SDS011;18343;50.152;8.182;2024-02-23T04:59:42;7.60;;;0.93;;
31770;SDS011;18343;50.152;8.182;2024-02-23T05:02:26;7.03;;;1.20;;
31770;SDS011;18343;50.152;8.182;2024-02-23T05:05:11;7.60;;;1.05;;
31770;SDS011;18343;50.152;8.182;2024-02-23T05:07:56;6.68;;;1.15;;
31770;SDS011;18343;50.152;8.182;2024-02-23T05:10:40;3.05;;;0.90;;
31770;SDS011;18343;50.152;8.182;2024-02-23T05:13:25;2.95;;;0.80;;
31770;SDS011;18343;50.152;8.182;2024-02-23T05:16:13;6.45;;;1.02;;
31770;SDS011;18343;50.152;8.182;2024-02-23T05:18:58;6.18;;;1.02;;
31770;SDS011;18343;50.152;8.182;2024-02-23T05:21:42;5.72;;;0.93;;
31770;SDS011;18343;50.152;8.182;2024-02-23T05:24:26;7.20;;;0.93;;
31770;SDS011;18343;50.152;8.182;2024-02-23T05:27:11;9.15;;;1.20;;
31770;SDS011;18343;50.152;8.182;2024-02-23T05:29:55;4.00;;;1.05;;
31770;SDS011;18343;50.152;8.182;2024-02-23T05:32:41;5.22;;;0.98;;
31770;SDS011;18343;50.152;8.182;2024-02-23T05:35:26;2.90;;;0.63;;
31770;SDS011;18343;50.152;8.182;2024-02-23T05:38:10;12.52;;;1.08;;
31770;SDS011;18343;50.152;8.182;2024-02-23T05:40:55;4.15;;;1.13;;
31770;SDS011;18343;50.152;8.182;2024-02-23T05:43:40;5.15;;;1.02;;
31770;SDS011;18343;50.152;8.182;2024-02-23T05:46:25;7.05;;;0.93;;
31770;SDS011;18343;50.152;8.182;2024-02-23T05:49:12;3.67;;;1.13;;
31770;SDS011;18343;50.152;8.182;2024-02-23T05:51:56;6.60;;;1.00;;
31770;SDS011;18343;50.152;8.182;2024-02-23T05:54:41;5.18;;;0.90;;
31770;SDS011;18343;50.152;8.182;2024-02-23T05:57:25;3.88;;;0.90;;
31770;SDS011;18343;50.152;8.182;2024-02-23T06:00:11;2.88;;;0.70;;
31770;SDS011;18343;50.152;8.182;2024-02-23T06:02:56;1.92;;;0.73;;
31770;SDS011;18343;50.152;8.182;2024-02-23T06:05:42;4.00;;;0.70;;
31770;SDS011;18343;50.152;8.182;2024-02-23T06:08:29;2.88;;;0.85;;
31770;SDS011;18343;50.152;8.182;2024-02-23T06:11:14;3.88;;;0.90;;
31770;SDS011;18343;50.152;8.182;2024-02-23T06:13:59;8.30;;;1.35;;
31770;SDS011;18343;50.152;8.182;2024-02-23T06:16:43;4.43;;;1.00;;
31770;SDS011;18343;50.152;8.182;2024-02-23T06:19:28;5.18;;;0.80;;
31770;SDS011;18343;50.152;8.182;2024-02-23T06:22:14;11.23;;;1.23;;
31770;SDS011;18343;50.152;8.182;2024-02-23T06:24:59;5.75;;;1.00;;
31770;SDS011;18343;50.152;8.182;2024-02-23T06:27:43;7.60;;;1.17;;
31770;SDS011;18343;50.152;8.182;2024-02-23T06:30:28;6.53;;;0.88;;
31770;SDS011;18343;50.152;8.182;2024-02-23T06:33:13;5.07;;;0.75;;
31770;SDS011;18343;50.152;8.182;2024-02-23T06:35:57;3.67;;;0.75;;
31770;SDS011;18343;50.152;8.182;2024-02-23T06:38:43;7.97;;;1.85;;
31770;SDS011;18343;50.152;8.182;2024-02-23T06:41:28;8.23;;;1.52;;
31770;SDS011;18343;50.152;8.182;2024-02-23T06:44:12;4.68;;;0.90;;
31770;SDS011;18343;50.152;8.182;2024-02-23T06:46:56;4.03;;;1.30;;
31770;SDS011;18343;50.152;8.182;2024-02-23T06:49:41;5.70;;;1.25;;
31770;SDS011;18343;50.152;8.182;2024-02-23T06:52:26;9.85;;;1.30;;
31770;SDS011;18343;50.152;8.182;2024-02-23T06:55:12;6.10;;;1.80;;
31770;SDS011;18343;50.152;8.182;2024-02-23T06:57:56;5.93;;;1.48;;
31770;SDS011;18343;50.152;8.182;2024-02-23T07:00:41;6.75;;;1.73;;
31770;SDS011;18343;50.152;8.182;2024-02-23T07:03:26;7.38;;;1.77;;
31770;SDS011;18343;50.152;8.182;2024-02-23T07:06:10;5.25;;;1.55;;
31770;SDS011;18343;50.152;8.182;2024-02-23T07:08:55;7.05;;;1.67;;
31770;SDS011;18343;50.152;8.182;2024-02-23T07:11:41;5.65;;;1.73;;
31770;SDS011;18343;50.152;8.182;2024-02-23T07:14:25;5.15;;;1.75;;
31770;SDS011;18343;50.152;8.182;2024-02-23T07:17:09;5.13;;;1.60;;
31770;SDS011;18343;50.152;8.182;2024-02-23T07:19:54;6.03;;;1.85;;
31770;SDS011;18343;50.152;8.182;2024-02-23T07:22:39;9.23;;;1.92;;
31770;SDS011;18343;50.152;8.182;2024-02-23T07:25:26;9.38;;;2.17;;
31770;SDS011;18343;50.152;8.182;2024-02-23T07:28:13;7.00;;;1.85;;
31770;SDS011;18343;50.152;8.182;2024-02-23T07:30:57;4.05;;;1.63;;
31770;SDS011;18343;50.152;8.182;2024-02-23T07:33:42;7.25;;;1.80;;
31770;SDS011;18343;50.152;8.182;2024-02-23T07:36:27;7.45;;;1.67;;
31770;SDS011;18343;50.152;8.182;2024-02-23T07:39:11;8.07;;;1.90;;
31770;SDS011;18343;50.152;8.182;2024-02-23T07:41:56;6.45;;;1.77;;
31770;SDS011;18343;50.152;8.182;2024-02-23T07:44:42;4.88;;;1.60;;
31770;SDS011;18343;50.152;8.182;2024-02-23T07:47:26;6.18;;;1.40;;
31770;SDS011;18343;50.152;8.182;2024-02-23T07:50:11;9.07;;;1.67;;
31770;SDS011;18343;50.152;8.182;2024-02-23T07:52:56;9.57;;;2.50;;
31770;SDS011;18343;50.152;8.182;2024-02-23T07:55:47;6.65;;;1.27;;
31770;SDS011;18343;50.152;8.182;2024-02-23T07:58:31;7.28;;;2.08;;
31770;SDS011;18343;50.152;8.182;2024-02-23T08:01:17;9.38;;;1.30;;
31770;SDS011;18343;50.152;8.182;2024-02-23T08:04:05;14.35;;;1.52;;
31770;SDS011;18343;50.152;8.182;2024-02-23T08:06:50;8.93;;;1.83;;
31770;SDS011;18343;50.152;8.182;2024-02-23T08:09:35;7.45;;;1.20;;
31770;SDS011;18343;50.152;8.182;2024-02-23T08:12:21;6.47;;;1.50;;
31770;SDS011;18343;50.152;8.182;2024-02-23T08:15:07;10.18;;;1.30;;
31770;SDS011;18343;50.152;8.182;2024-02-23T08:17:53;9.55;;;1.55;;
31770;SDS011;18343;50.152;8.182;2024-02-23T08:20:37;6.43;;;1.40;;
31770;SDS011;18343;50.152;8.182;2024-02-23T08:23:22;7.90;;;3.03;;
31770;SDS011;18343;50.152;8.182;2024-02-23T08:26:07;10.25;;;1.63;;
31770;SDS011;18343;50.152;8.182;2024-02-23T08:28:51;7.05;;;1.80;;
31770;SDS011;18343;50.152;8.182;2024-02-23T08:31:36;6.57;;;1.30;;
31770;SDS011;18343;50.152;8.182;2024-02-23T08:34:22;10.65;;;1.70;;
31770;SDS011;18343;50.152;8.182;2024-02-23T08:37:06;7.60;;;1.83;;
31770;SDS011;18343;50.152;8.182;2024-02-23T08:39:51;11.10;;;1.55;;
31770;SDS011;18343;50.152;8.182;2024-02-23T08:42:35;5.20;;;1.73;;
31770;SDS011;18343;50.152;8.182;2024-02-23T08:45:20;10.93;;;1.80;;
31770;SDS011;18343;50.152;8.182;2024-02-23T08:48:04;10.60;;;1.88;;
31770;SDS011;18343;50.152;8.182;2024-02-23T08:50:51;9.00;;;1.70;;
31770;SDS011;18343;50.152;8.182;2024-02-23T08:53:35;7.90;;;1.80;;
31770;SDS011;18343;50.152;8.182;2024-02-23T08:56:20;11.60;;;1.38;;
31770;SDS011;18343;50.152;8.182;2024-02-23T08:59:05;11.57;;;1.63;;
31770;SDS011;18343;50.152;8.182;2024-02-23T09:01:49;6.65;;;1.52;;
31770;SDS011;18343;50.152;8.182;2024-02-23T09:04:36;8.68;;;2.20;;
31770;SDS011;18343;50.152;8.182;2024-02-23T09:07:22;6.57;;;1.35;;
31770;SDS011;18343;50.152;8.182;2024-02-23T09:10:07;13.02;;;2.38;;
31770;SDS011;18343;50.152;8.182;2024-02-23T09:12:58;7.95;;;1.85;;
31770;SDS011;18343;50.152;8.182;2024-02-23T09:15:45;8.45;;;1.80;;
31770;SDS011;18343;50.152;8.182;2024-02-23T09:18:30;10.38;;;2.15;;
31770;SDS011;18343;50.152;8.182;2024-02-23T09:21:15;12.52;;;1.83;;
31770;SDS011;18343;50.152;8.182;2024-02-23T09:24:01;12.85;;;1.50;;
31770;SDS011;18343;50.152;8.182;2024-02-23T09:26:46;12.18;;;1.75;;
31770;SDS011;18343;50.152;8.182;2024-02-23T09:29:31;6.90;;;1.83;;
31770;SDS011;18343;50.152;8.182;2024-02-23T09:32:15;3.80;;;1.33;;
31770;SDS011;18343;50.152;8.182;2024-02-23T09:35:00;9.43;;;1.80;;
31770;SDS011;18343;50.152;8.182;2024-02-23T09:37:45;13.38;;;2.20;;
31770;SDS011;18343;50.152;8.182;2024-02-23T09:40:31;10.65;;;2.15;;
31770;SDS011;18343;50.152;8.182;2024-02-23T09:43:16;10.23;;;2.00;;
31770;SDS011;18343;50.152;8.182;2024-02-23T09:46:01;9.40;;;1.55;;
31770;SDS011;18343;50.152;8.182;2024-02-23T09:48:47;11.15;;;1.80;;
31770;SDS011;18343;50.152;8.182;2024-02-23T09:51:33;8.80;;;1.77;;
31770;SDS011;18343;50.152;8.182;2024-02-23T09:54:18;8.27;;;1.85;;
31770;SDS011;18343;50.152;8.182;2024-02-23T09:57:05;7.60;;;1.70;;
31770;SDS011;18343;50.152;8.182;2024-02-23T09:59:52;10.82;;;2.78;;
31770;SDS011;18343;50.152;8.182;2024-02-23T10:02:37;7.90;;;1.77;;
31770;SDS011;18343;50.152;8.182;2024-02-23T10:05:23;9.27;;;1.85;;
31770;SDS011;18343;50.152;8.182;2024-02-23T10:08:14;7.45;;;1.60;;
31770;SDS011;18343;50.152;8.182;2024-02-23T10:11:00;13.40;;;2.00;;
31770;SDS011;18343;50.152;8.182;2024-02-23T10:13:46;12.73;;;2.08;;
31770;SDS011;18343;50.152;8.182;2024-02-23T10:16:31;7.55;;;1.83;;
31770;SDS011;18343;50.152;8.182;2024-02-23T10:19:16;7.20;;;1.73;;
31770;SDS011;18343;50.152;8.182;2024-02-23T10:22:01;22.83;;;2.10;;
31770;SDS011;18343;50.152;8.182;2024-02-23T10:24:46;5.50;;;1.58;;
31770;SDS011;18343;50.152;8.182;2024-02-23T10:27:33;9.90;;;1.80;;
31770;SDS011;18343;50.152;8.182;2024-02-23T10:30:20;11.30;;;1.48;;
31770;SDS011;18343;50.152;8.182;2024-02-23T10:33:05;12.10;;;2.05;;
31770;SDS011;18343;50.152;8.182;2024-02-23T10:35:50;12.45;;;1.20;;
31770;SDS011;18343;50.152;8.182;2024-02-23T10:38:40;7.35;;;1.20;;
31770;SDS011;18343;50.152;8.182;2024-02-23T10:41:29;8.68;;;1.50;;
31770;SDS011;18343;50.152;8.182;2024-02-23T10:44:19;13.82;;;1.80;;
31770;SDS011;18343;50.152;8.182;2024-02-23T10:47:06;5.50;;;1.08;;
31770;SDS011;18343;50.152;8.182;2024-02-23T10:49:51;6.50;;;1.30;;
31770;SDS011;18343;50.152;8.182;2024-02-23T10:52:37;6.13;;;1.35;;
31770;SDS011;18343;50.152;8.182;2024-02-23T10:55:22;10.32;;;1.35;;
31770;SDS011;18343;50.152;8.182;2024-02-23T10:58:10;4.05;;;1.50;;
31770;SDS011;18343;50.152;8.182;2024-02-23T11:00:57;4.82;;;1.33;;
31770;SDS011;18343;50.152;8.182;2024-02-23T11:03:45;7.95;;;1.38;;
31770;SDS011;18343;50.152;8.182;2024-02-23T11:06:33;7.85;;;1.30;;
31770;SDS011;18343;50.152;8.182;2024-02-23T11:09:20;4.10;;;1.00;;
31770;SDS011;18343;50.152;8.182;2024-02-23T11:12:06;6.85;;;1.58;;
31770;SDS011;18343;50.152;8.182;2024-02-23T11:14:56;9.93;;;1.70;;
31770;SDS011;18343;50.152;8.182;2024-02-23T11:17:41;6.28;;;1.27;;
31770;SDS011;18343;50.152;8.182;2024-02-23T11:20:39;8.82;;;1.45;;
31770;SDS011;18343;50.152;8.182;2024-02-23T11:23:24;6.25;;;1.10;;
31770;SDS011;18343;50.152;8.182;2024-02-23T11:26:09;7.60;;;1.27;;
31770;SDS011;18343;50.152;8.182;2024-02-23T11:28:54;6.50;;;1.52;;
31770;SDS011;18343;50.152;8.182;2024-02-23T11:31:43;5.50;;;1.25;;
31770;SDS011;18343;50.152;8.182;2024-02-23T11:34:29;12.65;;;2.33;;
31770;SDS011;18343;50.152;8.182;2024-02-23T11:37:15;5.38;;;1.30;;
31770;SDS011;18343;50.152;8.182;2024-02-23T11:40:03;4.22;;;1.13;;
31770;SDS011;18343;50.152;8.182;2024-02-23T11:42:51;6.90;;;1.50;;
31770;SDS011;18343;50.152;8.182;2024-02-23T11:45:35;7.35;;;1.25;;
31770;SDS011;18343;50.152;8.182;2024-02-23T11:48:20;4.82;;;1.27;;
31770;SDS011;18343;50.152;8.182;2024-02-23T11:51:05;8.77;;;1.40;;
31770;SDS011;18343;50.152;8.182;2024-02-23T11:54:11;4.85;;;1.45;;
31770;SDS011;18343;50.152;8.182;2024-02-23T11:56:56;4.20;;;1.20;;
31770;SDS011;18343;50.152;8.182;2024-02-23T11:59:41;8.57;;;1.20;;
31770;SDS011;18343;50.152;8.182;2024-02-23T12:02:25;3.80;;;1.25;;
31770;SDS011;18343;50.152;8.182;2024-02-23T12:05:10;5.28;;;1.30;;
31770;SDS011;18343;50.152;8.182;2024-02-23T12:07:55;8.82;;;1.63;;
31770;SDS011;18343;50.152;8.182;2024-02-23T12:10:41;4.88;;;1.77;;
31770;SDS011;18343;50.152;8.182;2024-02-23T12:13:26;3.38;;;1.00;;
31770;SDS011;18343;50.152;8.182;2024-02-23T12:16:11;6.03;;;1.33;;
31770;SDS011;18343;50.152;8.182;2024-02-23T12:18:55;4.80;;;0.93;;
31770;SDS011;18343;50.152;8.182;2024-02-23T12:21:40;2.78;;;1.15;;
31770;SDS011;18343;50.152;8.182;2024-02-23T12:24:29;3.83;;;1.10;;
31770;SDS011;18343;50.152;8.182;2024-02-23T12:27:17;2.28;;;0.85;;
31770;SDS011;18343;50.152;8.182;2024-02-23T12:30:02;5.07;;;1.25;;
31770;SDS011;18343;50.152;8.182;2024-02-23T12:32:48;5.43;;;0.82;;
31770;SDS011;18343;50.152;8.182;2024-02-23T12:35:33;7.57;;;1.58;;
31770;SDS011;18343;50.152;8.182;2024-02-23T12:38:18;4.70;;;0.98;;
31770;SDS011;18343;50.152;8.182;2024-02-23T12:41:02;3.60;;;0.90;;
31770;SDS011;18343;50.152;8.182;2024-02-23T12:43:49;3.00;;;0.98;;
31770;SDS011;18343;50.152;8.182;2024-02-23T12:46:37;5.13;;;1.30;;
31770;SDS011;18343;50.152;8.182;2024-02-23T12:49:23;7.13;;;0.80;;
31770;SDS011;18343;50.152;8.182;2024-02-23T12:52:08;3.53;;;1.20;;
31770;SDS011;18343;50.152;8.182;2024-02-23T12:54:52;7.45;;;1.42;;
31770;SDS011;18343;50.152;8.182;2024-02-23T12:57:37;6.05;;;1.65;;
31770;SDS011;18343;50.152;8.182;2024-02-23T13:00:23;7.28;;;1.13;;
31770;SDS011;18343;50.152;8.182;2024-02-23T13:03:07;6.38;;;0.90;;
31770;SDS011;18343;50.152;8.182;2024-02-23T13:05:52;3.30;;;1.02;;
31770;SDS011;18343;50.152;8.182;2024-02-23T13:08:37;7.60;;;1.65;;
31770;SDS011;18343;50.152;8.182;2024-02-23T13:11:21;3.85;;;1.20;;
31770;SDS011;18343;50.152;8.182;2024-02-23T13:14:06;4.57;;;1.17;;
31770;SDS011;18343;50.152;8.182;2024-02-23T13:16:53;5.15;;;1.25;;
31770;SDS011;18343;50.152;8.182;2024-02-23T13:19:38;7.57;;;1.20;;
31770;SDS011;18343;50.152;8.182;2024-02-23T13:22:22;3.88;;;1.02;;
31770;SDS011;18343;50.152;8.182;2024-02-23T13:25:07;5.43;;;1.27;;
31770;SDS011;18343;50.152;8.182;2024-02-23T13:27:51;5.60;;;1.40;;
31770;SDS011;18343;50.152;8.182;2024-02-23T13:30:36;4.78;;;1.20;;
31770;SDS011;18343;50.152;8.182;2024-02-23T13:33:22;6.18;;;1.05;;
31770;SDS011;18343;50.152;8.182;2024-02-23T13:36:09;3.05;;;1.15;;
31770;SDS011;18343;50.152;8.182;2024-02-23T13:38:54;7.45;;;1.25;;
31770;SDS011;18343;50.152;8.182;2024-02-23T13:41:38;9.90;;;1.35;;
31770;SDS011;18343;50.152;8.182;2024-02-23T13:44:23;3.20;;;1.05;;
31770;SDS011;18343;50.152;8.182;2024-02-23T13:47:08;6.10;;;1.30;;
31770;SDS011;18343;50.152;8.182;2024-02-23T13:49:56;8.20;;;1.05;;
31770;SDS011;18343;50.152;8.182;2024-02-23T13:52:40;3.97;;;1.40;;
31770;SDS011;18343;50.152;8.182;2024-02-23T13:55:25;6.35;;;1.33;;
31770;SDS011;18343;50.152;8.182;2024-02-23T13:58:10;5.65;;;0.98;;
31770;SDS011;18343;50.152;8.182;2024-02-23T14:00:55;4.15;;;1.15;;
31770;SDS011;18343;50.152;8.182;2024-02-23T14:03:39;3.85;;;1.45;;
31770;SDS011;18343;50.152;8.182;2024-02-23T14:06:25;8.13;;;1.30;;
31770;SDS011;18343;50.152;8.182;2024-02-23T14:09:10;7.35;;;1.40;;
31770;SDS011;18343;50.152;8.182;2024-02-23T14:11:54;3.00;;;1.17;;
31770;SDS011;18343;50.152;8.182;2024-02-23T14:14:39;4.60;;;1.10;;
31770;SDS011;18343;50.152;8.182;2024-02-23T14:17:23;6.35;;;1.30;;
31770;SDS011;18343;50.152;8.182;2024-02-23T14:20:09;7.22;;;1.23;;
31770;SDS011;18343;50.152;8.182;2024-02-23T14:22:55;7.80;;;1.00;;
31770;SDS011;18343;50.152;8.182;2024-02-23T14:25:39;2.38;;;0.93;;
31770;SDS011;18343;50.152;8.182;2024-02-23T14:28:24;7.03;;;1.40;;
31770;SDS011;18343;50.152;8.182;2024-02-23T14:31:09;6.95;;;1.10;;
31770;SDS011;18343;50.152;8.182;2024-02-23T14:33:53;3.60;;;1.20;;
31770;SDS011;18343;50.152;8.182;2024-02-23T14:36:37;5.28;;;1.40;;
31770;SDS011;18343;50.152;8.182;2024-02-23T14:39:23;4.75;;;1.30;;
31770;SDS011;18343;50.152;8.182;2024-02-23T14:42:08;3.92;;;1.60;;
31770;SDS011;18343;50.152;8.182;2024-02-23T14:44:53;2.33;;;1.00;;
31770;SDS011;18343;50.152;8.182;2024-02-23T14:47:37;5.57;;;1.13;;
31770;SDS011;18343;50.152;8.182;2024-02-23T14:50:22;4.28;;;0.80;;
31770;SDS011;18343;50.152;8.182;2024-02-23T14:53:07;2.13;;;0.85;;
31770;SDS011;18343;50.152;8.182;2024-02-23T14:55:53;5.82;;;1.20;;
31770;SDS011;18343;50.152;8.182;2024-02-23T14:58:38;4.00;;;1.05;;
31770;SDS011;18343;50.152;8.182;2024-02-23T15:01:22;5.32;;;1.20;;
31770;SDS011;18343;50.152;8.182;2024-02-23T15:04:07;4.85;;;1.08;;
31770;SDS011;18343;50.152;8.182;2024-02-23T15:06:52;5.80;;;2.47;;
31770;SDS011;18343;50.152;8.182;2024-02-23T15:09:37;5.93;;;1.33;;
31770;SDS011;18343;50.152;8.182;2024-02-23T15:12:23;7.93;;;1.02;;
31770;SDS011;18343;50.152;8.182;2024-02-23T15:15:08;3.75;;;1.50;;
31770;SDS011;18343;50.152;8.182;2024-02-23T15:17:53;5.65;;;1.48;;
31770;SDS011;18343;50.152;8.182;2024-02-23T15:20:37;1.45;;;0.80;;
31770;SDS011;18343;50.152;8.182;2024-02-23T15:23:22;5.38;;;1.20;;
31770;SDS011;18343;50.152;8.182;2024-02-23T15:26:07;7.75;;;1.88;;
31770;SDS011;18343;50.152;8.182;2024-02-23T15:28:52;8.73;;;1.60;;
31770;SDS011;18343;50.152;8.182;2024-02-23T15:31:37;4.45;;;1.45;;
31770;SDS011;18343;50.152;8.182;2024-02-23T15:34:22;10.55;;;1.52;;
31770;SDS011;18343;50.152;8.182;2024-02-23T15:37:06;7.88;;;1.80;;
31770;SDS011;18343;50.152;8.182;2024-02-23T15:39:51;2.53;;;1.25;;
31770;SDS011;18343;50.152;8.182;2024-02-23T15:42:36;2.60;;;1.17;;
31770;SDS011;18343;50.152;8.182;2024-02-23T15:45:22;4.10;;;1.13;;
31770;SDS011;18343;50.152;8.182;2024-02-23T15:48:06;3.78;;;1.13;;
31770;SDS011;18343;50.152;8.182;2024-02-23T15:50:51;5.95;;;1.05;;
31770;SDS011;18343;50.152;8.182;2024-02-23T15:53:36;5.22;;;1.00;;
31770;SDS011;18343;50.152;8.182;2024-02-23T15:56:21;5.32;;;1.05;;
31770;SDS011;18343;50.152;8.182;2024-02-23T15:59:06;7.85;;;1.00;;
31770;SDS011;18343;50.152;8.182;2024-02-23T16:01:52;6.22;;;1.30;;
31770;SDS011;18343;50.152;8.182;2024-02-23T16:04:36;4.03;;;0.90;;
31770;SDS011;18343;50.152;8.182;2024-02-23T16:07:21;7.15;;;1.88;;
31770;SDS011;18343;50.152;8.182;2024-02-23T16:10:06;4.93;;;1.38;;
31770;SDS011;18343;50.152;8.182;2024-02-23T16:12:51;4.10;;;0.98;;
31770;SDS011;18343;50.152;8.182;2024-02-23T16:15:36;5.32;;;0.93;;
31770;SDS011;18343;50.152;8.182;2024-02-23T16:18:22;7.13;;;1.42;;
31770;SDS011;18343;50.152;8.182;2024-02-23T16:21:07;6.78;;;1.80;;
31770;SDS011;18343;50.152;8.182;2024-02-23T16:23:51;6.03;;;1.77;;
31770;SDS011;18343;50.152;8.182;2024-02-23T16:26:36;6.57;;;1.17;;
31770;SDS011;18343;50.152;8.182;2024-02-23T16:29:21;4.30;;;2.30;;
31770;SDS011;18343;50.152;8.182;2024-02-23T16:32:05;10.38;;;3.13;;
31770;SDS011;18343;50.152;8.182;2024-02-23T16:34:51;6.50;;;3.40;;